Capitol Logistics 203


KMIA
Miami International Airport
Miami, Florida, US
KRFD
Chicago/Rockford International Airport
Rockford, Illinois, US

Route Details

Aircraft Information
Primary: Boeing 767-300BDSF
Backup: Not Available
Route Data
Distance: 1139nm
Sched. Duration: 3h 00m
Avg. Duration: 2h 97m (-2m)
Times Flown: 14
Recm'd Route: WINCO2 WINCO J73 LAL CTY J91 ATL VARNM GLAZR Q118 HEVAN Q118 MZZ JOT
Planned Altitude: 35,000ft
Origin Wx: KMIA 311153Z 00000KT 10SM FEW020 FEW045 BKN250 24/22 A2997 RMK AO2 SLP149 T02390217 10244 20233 53004
Dest. Wx: KRFD 311154Z 02011KT 10SM OVC018 03/M01 A3010 RMK AO2 SLP197 T00281011 10039 20022 55003
Notes:

Financial History
Total Freight: 1,018,910lbs
Average Load: 72,779lbs/flt
Fuel Used: 376,413lbs
Avg. Fuel Used: 26,887lbs/flt
Fuel Expense: $464,222
Avg. Fuel Expense: $33,159
Avg. Fuel Cost: $1.23/lbs
Total Gross Income: $1,375,336
Pilot Pay: $2,026
Total Expenses: $149,264
Total Revenue: $753,568
Average Revenue: $98,238.29